sensor_id;sensor_type;location;lat;lon;timestamp;temperature;humidity
64654;DHT22;51065;48.884;12.598;2023-07-29T00:01:42;16.90;99.90
64654;DHT22;51065;48.884;12.598;2023-07-29T00:04:08;16.90;99.90
64654;DHT22;51065;48.884;12.598;2023-07-29T00:06:35;16.90;99.90
64654;DHT22;51065;48.884;12.598;2023-07-29T00:09:01;16.90;99.90
64654;DHT22;51065;48.884;12.598;2023-07-29T00:11:26;16.90;99.90
64654;DHT22;51065;48.884;12.598;2023-07-29T00:13:52;16.90;99.90
64654;DHT22;51065;48.884;12.598;2023-07-29T00:16:18;16.90;99.90
64654;DHT22;51065;48.884;12.598;2023-07-29T00:18:51;16.90;99.90
64654;DHT22;51065;48.884;12.598;2023-07-29T00:21:16;16.90;99.90
64654;DHT22;51065;48.884;12.598;2023-07-29T00:23:42;16.90;99.90
64654;DHT22;51065;48.884;12.598;2023-07-29T00:26:07;16.80;99.90
64654;DHT22;51065;48.884;12.598;2023-07-29T00:28:33;16.80;99.90
64654;DHT22;51065;48.884;12.598;2023-07-29T00:30:58;16.80;99.90
64654;DHT22;51065;48.884;12.598;2023-07-29T00:33:24;16.80;99.90
64654;DHT22;51065;48.884;12.598;2023-07-29T00:35:50;16.90;99.90
64654;DHT22;51065;48.884;12.598;2023-07-29T00:38:16;16.90;99.90
64654;DHT22;51065;48.884;12.598;2023-07-29T00:40:41;16.90;99.90
64654;DHT22;51065;48.884;12.598;2023-07-29T00:43:07;16.90;99.90
64654;DHT22;51065;48.884;12.598;2023-07-29T00:45:34;17.00;99.90
64654;DHT22;51065;48.884;12.598;2023-07-29T00:48:01;16.90;99.90
64654;DHT22;51065;48.884;12.598;2023-07-29T00:50:28;16.90;99.90
64654;DHT22;51065;48.884;12.598;2023-07-29T00:52:55;16.90;99.90
64654;DHT22;51065;48.884;12.598;2023-07-29T00:55:21;17.00;99.90
64654;DHT22;51065;48.884;12.598;2023-07-29T00:57:47;17.00;99.90
64654;DHT22;51065;48.884;12.598;2023-07-29T01:00:15;17.10;99.90
64654;DHT22;51065;48.884;12.598;2023-07-29T01:02:42;17.00;99.90
64654;DHT22;51065;48.884;12.598;2023-07-29T01:05:08;17.00;99.90
64654;DHT22;51065;48.884;12.598;2023-07-29T01:07:54;17.00;99.90
64654;DHT22;51065;48.884;12.598;2023-07-29T01:13:10;17.00;99.90
64654;DHT22;51065;48.884;12.598;2023-07-29T01:15:57;16.90;99.90
64654;DHT22;51065;48.884;12.598;2023-07-29T01:18:28;16.90;99.90
64654;DHT22;51065;48.884;12.598;2023-07-29T01:20:59;16.90;99.90
64654;DHT22;51065;48.884;12.598;2023-07-29T01:23:31;16.90;99.90
64654;DHT22;51065;48.884;12.598;2023-07-29T01:25:57;16.90;99.90
64654;DHT22;51065;48.884;12.598;2023-07-29T01:28:23;16.90;99.90
64654;DHT22;51065;48.884;12.598;2023-07-29T01:30:52;16.90;99.90
64654;DHT22;51065;48.884;12.598;2023-07-29T01:33:34;16.90;99.90
64654;DHT22;51065;48.884;12.598;2023-07-29T01:36:08;16.90;99.90
64654;DHT22;51065;48.884;12.598;2023-07-29T01:38:38;16.90;99.90
64654;DHT22;51065;48.884;12.598;2023-07-29T01:41:07;16.90;99.90
64654;DHT22;51065;48.884;12.598;2023-07-29T01:43:33;16.80;99.90
64654;DHT22;51065;48.884;12.598;2023-07-29T01:46:02;16.80;99.90
64654;DHT22;51065;48.884;12.598;2023-07-29T01:48:28;16.80;99.90
64654;DHT22;51065;48.884;12.598;2023-07-29T01:50:55;16.80;99.90
64654;DHT22;51065;48.884;12.598;2023-07-29T01:53:21;16.80;99.90
64654;DHT22;51065;48.884;12.598;2023-07-29T01:55:47;16.70;99.90
64654;DHT22;51065;48.884;12.598;2023-07-29T01:58:12;16.70;99.90
64654;DHT22;51065;48.884;12.598;2023-07-29T02:00:39;16.60;99.90
64654;DHT22;51065;48.884;12.598;2023-07-29T02:03:05;16.60;99.90
64654;DHT22;51065;48.884;12.598;2023-07-29T02:05:31;16.50;99.90
64654;DHT22;51065;48.884;12.598;2023-07-29T02:07:56;16.50;99.90
64654;DHT22;51065;48.884;12.598;2023-07-29T02:10:22;16.40;99.90
64654;DHT22;51065;48.884;12.598;2023-07-29T02:12:48;16.40;99.90
64654;DHT22;51065;48.884;12.598;2023-07-29T02:15:13;16.40;99.90
64654;DHT22;51065;48.884;12.598;2023-07-29T02:17:41;16.40;99.90
64654;DHT22;51065;48.884;12.598;2023-07-29T02:20:07;16.40;99.90
64654;DHT22;51065;48.884;12.598;2023-07-29T02:22:34;16.50;99.90
64654;DHT22;51065;48.884;12.598;2023-07-29T02:24:59;16.50;99.90
64654;DHT22;51065;48.884;12.598;2023-07-29T02:27:26;16.50;99.90
64654;DHT22;51065;48.884;12.598;2023-07-29T02:29:52;16.50;99.90
64654;DHT22;51065;48.884;12.598;2023-07-29T02:32:18;16.50;99.90
64654;DHT22;51065;48.884;12.598;2023-07-29T02:34:44;16.50;99.90
64654;DHT22;51065;48.884;12.598;2023-07-29T02:37:10;16.50;99.90
64654;DHT22;51065;48.884;12.598;2023-07-29T02:39:36;16.40;99.90
64654;DHT22;51065;48.884;12.598;2023-07-29T02:42:01;16.40;99.90
64654;DHT22;51065;48.884;12.598;2023-07-29T02:44:27;16.30;99.90
64654;DHT22;51065;48.884;12.598;2023-07-29T02:46:52;16.30;99.90
64654;DHT22;51065;48.884;12.598;2023-07-29T02:49:19;16.30;99.90
64654;DHT22;51065;48.884;12.598;2023-07-29T02:51:45;16.30;99.90
64654;DHT22;51065;48.884;12.598;2023-07-29T02:54:11;16.30;99.90
64654;DHT22;51065;48.884;12.598;2023-07-29T02:56:36;16.20;99.90
64654;DHT22;51065;48.884;12.598;2023-07-29T02:59:02;16.20;99.90
64654;DHT22;51065;48.884;12.598;2023-07-29T03:01:27;16.20;99.90
64654;DHT22;51065;48.884;12.598;2023-07-29T03:03:53;16.20;99.90
64654;DHT22;51065;48.884;12.598;2023-07-29T03:09:47;16.10;99.90
64654;DHT22;51065;48.884;12.598;2023-07-29T03:12:12;16.00;99.90
64654;DHT22;51065;48.884;12.598;2023-07-29T03:14:38;15.90;99.90
64654;DHT22;51065;48.884;12.598;2023-07-29T03:17:04;15.80;99.90
64654;DHT22;51065;48.884;12.598;2023-07-29T03:19:29;15.70;99.90
64654;DHT22;51065;48.884;12.598;2023-07-29T03:21:55;15.60;99.90
64654;DHT22;51065;48.884;12.598;2023-07-29T03:24:21;15.50;99.90
64654;DHT22;51065;48.884;12.598;2023-07-29T03:26:46;15.40;99.90
64654;DHT22;51065;48.884;12.598;2023-07-29T03:29:12;15.40;99.90
64654;DHT22;51065;48.884;12.598;2023-07-29T03:31:37;15.40;99.90
64654;DHT22;51065;48.884;12.598;2023-07-29T03:34:03;15.40;99.90
64654;DHT22;51065;48.884;12.598;2023-07-29T03:36:29;15.40;99.90
64654;DHT22;51065;48.884;12.598;2023-07-29T03:38:54;15.40;99.90
64654;DHT22;51065;48.884;12.598;2023-07-29T03:41:20;15.30;99.90
64654;DHT22;51065;48.884;12.598;2023-07-29T03:43:46;15.30;99.90
64654;DHT22;51065;48.884;12.598;2023-07-29T03:46:11;15.30;99.90
64654;DHT22;51065;48.884;12.598;2023-07-29T03:48:37;15.40;99.90
64654;DHT22;51065;48.884;12.598;2023-07-29T03:51:02;15.40;99.90
64654;DHT22;51065;48.884;12.598;2023-07-29T03:53:28;15.30;99.90
64654;DHT22;51065;48.884;12.598;2023-07-29T03:55:54;15.20;99.90
64654;DHT22;51065;48.884;12.598;2023-07-29T03:58:19;15.20;99.90
64654;DHT22;51065;48.884;12.598;2023-07-29T04:00:45;15.10;99.90
64654;DHT22;51065;48.884;12.598;2023-07-29T04:03:10;15.10;99.90
64654;DHT22;51065;48.884;12.598;2023-07-29T04:05:36;15.20;99.90
64654;DHT22;51065;48.884;12.598;2023-07-29T04:08:02;15.20;99.90
64654;DHT22;51065;48.884;12.598;2023-07-29T04:10:28;15.20;99.90
64654;DHT22;51065;48.884;12.598;2023-07-29T04:12:53;15.30;99.90
64654;DHT22;51065;48.884;12.598;2023-07-29T04:15:19;15.40;99.90
64654;DHT22;51065;48.884;12.598;2023-07-29T04:17:44;15.40;99.90
64654;DHT22;51065;48.884;12.598;2023-07-29T04:20:10;15.40;99.90
64654;DHT22;51065;48.884;12.598;2023-07-29T04:22:36;15.40;99.90
64654;DHT22;51065;48.884;12.598;2023-07-29T04:25:02;15.40;99.90
64654;DHT22;51065;48.884;12.598;2023-07-29T04:27:30;15.40;99.90
64654;DHT22;51065;48.884;12.598;2023-07-29T04:29:55;15.40;99.90
64654;DHT22;51065;48.884;12.598;2023-07-29T04:32:21;15.50;99.90
64654;DHT22;51065;48.884;12.598;2023-07-29T04:34:46;15.60;99.90
64654;DHT22;51065;48.884;12.598;2023-07-29T04:37:12;15.70;99.90
64654;DHT22;51065;48.884;12.598;2023-07-29T04:39:38;15.80;99.90
64654;DHT22;51065;48.884;12.598;2023-07-29T04:42:03;16.10;99.90
64654;DHT22;51065;48.884;12.598;2023-07-29T04:44:29;16.40;99.90
64654;DHT22;51065;48.884;12.598;2023-07-29T04:46:55;16.90;99.90
64654;DHT22;51065;48.884;12.598;2023-07-29T04:49:20;17.20;99.90
64654;DHT22;51065;48.884;12.598;2023-07-29T04:51:46;17.50;99.90
64654;DHT22;51065;48.884;12.598;2023-07-29T04:54:11;17.70;99.90
64654;DHT22;51065;48.884;12.598;2023-07-29T04:56:37;18.00;99.90
64654;DHT22;51065;48.884;12.598;2023-07-29T04:59:02;18.30;99.90
64654;DHT22;51065;48.884;12.598;2023-07-29T05:01:28;18.20;99.90
64654;DHT22;51065;48.884;12.598;2023-07-29T05:03:54;18.40;99.90
64654;DHT22;51065;48.884;12.598;2023-07-29T05:06:19;18.20;99.90
64654;DHT22;51065;48.884;12.598;2023-07-29T05:08:45;18.00;99.90
64654;DHT22;51065;48.884;12.598;2023-07-29T05:11:11;18.30;99.90
64654;DHT22;51065;48.884;12.598;2023-07-29T05:13:36;18.60;99.90
64654;DHT22;51065;48.884;12.598;2023-07-29T05:16:03;18.70;99.90
64654;DHT22;51065;48.884;12.598;2023-07-29T05:18:28;18.90;99.90
64654;DHT22;51065;48.884;12.598;2023-07-29T05:20:54;18.80;99.90
64654;DHT22;51065;48.884;12.598;2023-07-29T05:23:19;18.60;99.90
64654;DHT22;51065;48.884;12.598;2023-07-29T05:25:45;18.30;99.90
64654;DHT22;51065;48.884;12.598;2023-07-29T05:28:11;18.20;99.90
64654;DHT22;51065;48.884;12.598;2023-07-29T05:30:37;18.10;99.90
64654;DHT22;51065;48.884;12.598;2023-07-29T05:33:03;18.30;99.90
64654;DHT22;51065;48.884;12.598;2023-07-29T05:35:30;18.80;99.90
64654;DHT22;51065;48.884;12.598;2023-07-29T05:37:55;19.50;99.90
64654;DHT22;51065;48.884;12.598;2023-07-29T05:40:21;20.10;99.90
64654;DHT22;51065;48.884;12.598;2023-07-29T05:42:46;20.50;99.90
64654;DHT22;51065;48.884;12.598;2023-07-29T05:45:13;20.50;99.90
64654;DHT22;51065;48.884;12.598;2023-07-29T05:47:39;20.50;99.90
64654;DHT22;51065;48.884;12.598;2023-07-29T05:50:04;20.50;99.90
64654;DHT22;51065;48.884;12.598;2023-07-29T05:52:31;20.40;99.90
64654;DHT22;51065;48.884;12.598;2023-07-29T05:54:57;20.50;99.90
64654;DHT22;51065;48.884;12.598;2023-07-29T05:57:23;20.80;99.90
64654;DHT22;51065;48.884;12.598;2023-07-29T05:59:48;20.90;99.90
64654;DHT22;51065;48.884;12.598;2023-07-29T06:02:14;21.20;99.90
64654;DHT22;51065;48.884;12.598;2023-07-29T06:04:40;21.70;99.90
64654;DHT22;51065;48.884;12.598;2023-07-29T06:07:06;22.30;99.90
64654;DHT22;51065;48.884;12.598;2023-07-29T06:09:32;22.40;99.90
64654;DHT22;51065;48.884;12.598;2023-07-29T06:11:57;22.30;99.90
64654;DHT22;51065;48.884;12.598;2023-07-29T06:14:23;22.10;99.90
64654;DHT22;51065;48.884;12.598;2023-07-29T06:16:48;22.10;99.90
64654;DHT22;51065;48.884;12.598;2023-07-29T06:19:14;22.20;99.90
64654;DHT22;51065;48.884;12.598;2023-07-29T06:21:39;22.40;99.90
64654;DHT22;51065;48.884;12.598;2023-07-29T06:24:05;22.70;99.90
64654;DHT22;51065;48.884;12.598;2023-07-29T06:26:31;22.90;99.90
64654;DHT22;51065;48.884;12.598;2023-07-29T06:28:56;23.30;99.90
64654;DHT22;51065;48.884;12.598;2023-07-29T06:31:22;23.00;99.90
64654;DHT22;51065;48.884;12.598;2023-07-29T06:33:47;22.40;99.90
64654;DHT22;51065;48.884;12.598;2023-07-29T06:36:13;22.50;99.90
64654;DHT22;51065;48.884;12.598;2023-07-29T06:38:39;22.70;99.90
64654;DHT22;51065;48.884;12.598;2023-07-29T06:41:06;23.10;99.90
64654;DHT22;51065;48.884;12.598;2023-07-29T06:43:31;23.70;99.90
64654;DHT22;51065;48.884;12.598;2023-07-29T06:45:57;23.70;99.90
64654;DHT22;51065;48.884;12.598;2023-07-29T06:48:23;23.50;99.90
64654;DHT22;51065;48.884;12.598;2023-07-29T06:50:49;23.00;99.90
64654;DHT22;51065;48.884;12.598;2023-07-29T06:53:16;22.80;99.90
64654;DHT22;51065;48.884;12.598;2023-07-29T06:55:45;22.40;99.90
64654;DHT22;51065;48.884;12.598;2023-07-29T06:58:13;22.50;99.90
64654;DHT22;51065;48.884;12.598;2023-07-29T07:00:39;22.30;99.90
64654;DHT22;51065;48.884;12.598;2023-07-29T07:03:05;22.10;99.90
64654;DHT22;51065;48.884;12.598;2023-07-29T07:05:30;22.20;99.90
64654;DHT22;51065;48.884;12.598;2023-07-29T07:07:56;22.50;99.90
64654;DHT22;51065;48.884;12.598;2023-07-29T07:10:22;22.70;99.90
64654;DHT22;51065;48.884;12.598;2023-07-29T07:12:47;22.70;99.90
64654;DHT22;51065;48.884;12.598;2023-07-29T07:15:13;22.50;99.90
64654;DHT22;51065;48.884;12.598;2023-07-29T07:17:38;22.50;99.90
64654;DHT22;51065;48.884;12.598;2023-07-29T07:20:05;22.80;99.90
64654;DHT22;51065;48.884;12.598;2023-07-29T07:22:31;23.10;99.90
64654;DHT22;51065;48.884;12.598;2023-07-29T07:24:56;23.10;99.90
64654;DHT22;51065;48.884;12.598;2023-07-29T07:27:22;23.00;99.90
64654;DHT22;51065;48.884;12.598;2023-07-29T07:29:47;23.30;99.90
64654;DHT22;51065;48.884;12.598;2023-07-29T07:32:13;23.60;99.90
64654;DHT22;51065;48.884;12.598;2023-07-29T07:34:39;23.70;99.90
64654;DHT22;51065;48.884;12.598;2023-07-29T07:37:04;23.80;99.90
64654;DHT22;51065;48.884;12.598;2023-07-29T07:39:31;23.80;99.90
64654;DHT22;51065;48.884;12.598;2023-07-29T07:41:57;24.00;99.90
64654;DHT22;51065;48.884;12.598;2023-07-29T07:44:23;24.80;99.90
64654;DHT22;51065;48.884;12.598;2023-07-29T07:46:52;25.20;99.90
64654;DHT22;51065;48.884;12.598;2023-07-29T07:49:17;25.10;99.90
64654;DHT22;51065;48.884;12.598;2023-07-29T07:51:44;25.10;99.90
64654;DHT22;51065;48.884;12.598;2023-07-29T07:54:09;25.30;99.90
64654;DHT22;51065;48.884;12.598;2023-07-29T07:56:35;25.00;99.90
64654;DHT22;51065;48.884;12.598;2023-07-29T07:59:00;24.80;99.90
64654;DHT22;51065;48.884;12.598;2023-07-29T08:01:26;24.40;99.90
64654;DHT22;51065;48.884;12.598;2023-07-29T08:03:51;23.90;99.90
64654;DHT22;51065;48.884;12.598;2023-07-29T08:06:17;24.00;99.90
64654;DHT22;51065;48.884;12.598;2023-07-29T08:08:43;24.40;99.90
64654;DHT22;51065;48.884;12.598;2023-07-29T08:11:08;24.70;99.90
64654;DHT22;51065;48.884;12.598;2023-07-29T08:13:34;25.20;99.90
64654;DHT22;51065;48.884;12.598;2023-07-29T08:15:59;25.60;99.90
64654;DHT22;51065;48.884;12.598;2023-07-29T08:18:25;25.80;99.90
64654;DHT22;51065;48.884;12.598;2023-07-29T08:20:52;25.70;99.90
64654;DHT22;51065;48.884;12.598;2023-07-29T08:23:19;26.20;99.90
64654;DHT22;51065;48.884;12.598;2023-07-29T08:25:45;26.20;99.90
64654;DHT22;51065;48.884;12.598;2023-07-29T08:28:10;25.70;99.90
64654;DHT22;51065;48.884;12.598;2023-07-29T08:30:36;25.30;99.90
64654;DHT22;51065;48.884;12.598;2023-07-29T08:33:02;24.50;99.90
64654;DHT22;51065;48.884;12.598;2023-07-29T08:35:27;23.80;99.90
64654;DHT22;51065;48.884;12.598;2023-07-29T08:37:53;23.10;99.90
64654;DHT22;51065;48.884;12.598;2023-07-29T08:40:23;22.60;99.90
64654;DHT22;51065;48.884;12.598;2023-07-29T08:42:52;22.10;99.90
64654;DHT22;51065;48.884;12.598;2023-07-29T08:45:21;22.00;99.90
64654;DHT22;51065;48.884;12.598;2023-07-29T08:47:48;22.10;99.90
64654;DHT22;51065;48.884;12.598;2023-07-29T08:50:15;22.20;99.90
64654;DHT22;51065;48.884;12.598;2023-07-29T08:52:42;22.40;99.90
64654;DHT22;51065;48.884;12.598;2023-07-29T08:55:08;22.10;99.90
64654;DHT22;51065;48.884;12.598;2023-07-29T08:57:34;21.40;99.90
64654;DHT22;51065;48.884;12.598;2023-07-29T09:00:01;20.70;99.90
64654;DHT22;51065;48.884;12.598;2023-07-29T09:02:27;20.20;99.90
64654;DHT22;51065;48.884;12.598;2023-07-29T09:04:53;19.80;99.90
64654;DHT22;51065;48.884;12.598;2023-07-29T09:07:19;19.40;99.90
64654;DHT22;51065;48.884;12.598;2023-07-29T09:09:45;19.20;99.90
64654;DHT22;51065;48.884;12.598;2023-07-29T09:12:10;19.10;99.90
64654;DHT22;51065;48.884;12.598;2023-07-29T09:14:37;19.00;99.90
64654;DHT22;51065;48.884;12.598;2023-07-29T09:17:06;19.00;99.90
64654;DHT22;51065;48.884;12.598;2023-07-29T09:19:33;18.70;99.90
64654;DHT22;51065;48.884;12.598;2023-07-29T09:21:59;18.60;99.90
64654;DHT22;51065;48.884;12.598;2023-07-29T09:24:25;18.60;99.90
64654;DHT22;51065;48.884;12.598;2023-07-29T09:26:54;18.60;99.90
64654;DHT22;51065;48.884;12.598;2023-07-29T09:29:28;18.50;99.90
64654;DHT22;51065;48.884;12.598;2023-07-29T09:31:53;18.50;99.90
64654;DHT22;51065;48.884;12.598;2023-07-29T09:34:19;18.60;99.90
64654;DHT22;51065;48.884;12.598;2023-07-29T09:36:45;18.60;99.90
64654;DHT22;51065;48.884;12.598;2023-07-29T09:39:12;18.70;99.90
64654;DHT22;51065;48.884;12.598;2023-07-29T09:41:40;18.70;99.90
64654;DHT22;51065;48.884;12.598;2023-07-29T09:44:07;18.90;99.90
64654;DHT22;51065;48.884;12.598;2023-07-29T09:46:37;19.10;99.90
64654;DHT22;51065;48.884;12.598;2023-07-29T09:49:04;19.40;99.90
64654;DHT22;51065;48.884;12.598;2023-07-29T09:51:30;19.80;99.90
64654;DHT22;51065;48.884;12.598;2023-07-29T09:53:55;20.00;99.90
64654;DHT22;51065;48.884;12.598;2023-07-29T09:56:27;20.20;99.90
64654;DHT22;51065;48.884;12.598;2023-07-29T09:58:55;20.40;99.90
64654;DHT22;51065;48.884;12.598;2023-07-29T10:01:23;20.60;99.90
64654;DHT22;51065;48.884;12.598;2023-07-29T10:03:49;20.70;99.90
64654;DHT22;51065;48.884;12.598;2023-07-29T10:06:15;21.00;99.90
64654;DHT22;51065;48.884;12.598;2023-07-29T10:08:42;21.40;99.90
64654;DHT22;51065;48.884;12.598;2023-07-29T10:11:09;22.70;99.90
64654;DHT22;51065;48.884;12.598;2023-07-29T10:13:36;24.10;99.90
64654;DHT22;51065;48.884;12.598;2023-07-29T10:16:03;24.70;99.90
64654;DHT22;51065;48.884;12.598;2023-07-29T10:18:29;24.40;99.90
64654;DHT22;51065;48.884;12.598;2023-07-29T10:20:57;24.60;99.90
64654;DHT22;51065;48.884;12.598;2023-07-29T10:23:25;25.00;99.90
64654;DHT22;51065;48.884;12.598;2023-07-29T10:25:57;25.60;99.90
64654;DHT22;51065;48.884;12.598;2023-07-29T10:28:29;27.20;99.90
64654;DHT22;51065;48.884;12.598;2023-07-29T10:30:56;27.80;99.90
64654;DHT22;51065;48.884;12.598;2023-07-29T10:33:22;27.70;99.90
64654;DHT22;51065;48.884;12.598;2023-07-29T10:35:48;26.90;99.90
64654;DHT22;51065;48.884;12.598;2023-07-29T10:38:15;26.30;99.90
64654;DHT22;51065;48.884;12.598;2023-07-29T10:40:46;25.80;99.90
64654;DHT22;51065;48.884;12.598;2023-07-29T10:43:15;25.20;99.90
64654;DHT22;51065;48.884;12.598;2023-07-29T10:45:44;24.70;99.90
64654;DHT22;51065;48.884;12.598;2023-07-29T10:48:39;24.10;99.90
64654;DHT22;51065;48.884;12.598;2023-07-29T10:51:29;23.50;99.90
64654;DHT22;51065;48.884;12.598;2023-07-29T10:53:56;22.60;99.90
64654;DHT22;51065;48.884;12.598;2023-07-29T10:56:31;21.70;99.90
64654;DHT22;51065;48.884;12.598;2023-07-29T11:01:39;20.40;99.90
64654;DHT22;51065;48.884;12.598;2023-07-29T11:12:39;21.40;99.90
64654;DHT22;51065;48.884;12.598;2023-07-29T11:17:58;22.10;99.90
64654;DHT22;51065;48.884;12.598;2023-07-29T11:20:29;22.20;99.90
64654;DHT22;51065;48.884;12.598;2023-07-29T11:22:55;22.40;99.90
64654;DHT22;51065;48.884;12.598;2023-07-29T11:25:22;23.10;99.90
64654;DHT22;51065;48.884;12.598;2023-07-29T11:27:48;23.90;99.90
64654;DHT22;51065;48.884;12.598;2023-07-29T11:30:15;24.30;99.90
64654;DHT22;51065;48.884;12.598;2023-07-29T11:32:42;24.50;99.90
64654;DHT22;51065;48.884;12.598;2023-07-29T11:35:11;24.40;99.90
64654;DHT22;51065;48.884;12.598;2023-07-29T11:37:37;24.30;99.90
64654;DHT22;51065;48.884;12.598;2023-07-29T11:40:04;25.00;99.90
64654;DHT22;51065;48.884;12.598;2023-07-29T11:42:34;25.20;99.90
64654;DHT22;51065;48.884;12.598;2023-07-29T11:45:01;25.40;99.90
64654;DHT22;51065;48.884;12.598;2023-07-29T11:47:28;25.50;99.90
64654;DHT22;51065;48.884;12.598;2023-07-29T11:49:53;25.50;99.90
64654;DHT22;51065;48.884;12.598;2023-07-29T11:52:19;25.40;99.90
64654;DHT22;51065;48.884;12.598;2023-07-29T11:54:48;25.60;99.90
64654;DHT22;51065;48.884;12.598;2023-07-29T11:57:14;26.80;99.90
64654;DHT22;51065;48.884;12.598;2023-07-29T11:59:44;28.10;99.90
64654;DHT22;51065;48.884;12.598;2023-07-29T12:02:14;27.80;99.90
64654;DHT22;51065;48.884;12.598;2023-07-29T12:04:41;27.20;99.90
64654;DHT22;51065;48.884;12.598;2023-07-29T12:07:08;26.60;99.90
64654;DHT22;51065;48.884;12.598;2023-07-29T12:09:37;26.50;99.90
64654;DHT22;51065;48.884;12.598;2023-07-29T12:12:06;26.70;99.90
64654;DHT22;51065;48.884;12.598;2023-07-29T12:14:33;26.60;99.90
64654;DHT22;51065;48.884;12.598;2023-07-29T12:17:03;26.70;99.90
64654;DHT22;51065;48.884;12.598;2023-07-29T12:19:36;26.70;99.90
64654;DHT22;51065;48.884;12.598;2023-07-29T12:22:03;26.70;99.90
64654;DHT22;51065;48.884;12.598;2023-07-29T12:24:30;25.80;99.90
64654;DHT22;51065;48.884;12.598;2023-07-29T12:26:56;25.40;99.90
64654;DHT22;51065;48.884;12.598;2023-07-29T12:29:22;25.50;99.90
64654;DHT22;51065;48.884;12.598;2023-07-29T12:31:48;26.20;99.90
64654;DHT22;51065;48.884;12.598;2023-07-29T12:34:21;27.70;99.90
64654;DHT22;51065;48.884;12.598;2023-07-29T12:36:48;28.80;99.90
64654;DHT22;51065;48.884;12.598;2023-07-29T12:41:48;30.10;99.90
64654;DHT22;51065;48.884;12.598;2023-07-29T12:44:14;30.20;98.70
64654;DHT22;51065;48.884;12.598;2023-07-29T12:46:39;29.00;99.90
64654;DHT22;51065;48.884;12.598;2023-07-29T12:49:05;28.70;99.90
64654;DHT22;51065;48.884;12.598;2023-07-29T12:51:31;28.30;99.90
64654;DHT22;51065;48.884;12.598;2023-07-29T12:53:57;28.50;99.90
64654;DHT22;51065;48.884;12.598;2023-07-29T12:56:22;28.70;99.90
64654;DHT22;51065;48.884;12.598;2023-07-29T12:58:48;28.90;95.10
64654;DHT22;51065;48.884;12.598;2023-07-29T13:01:14;28.30;99.60
64654;DHT22;51065;48.884;12.598;2023-07-29T13:03:47;27.80;99.90
64654;DHT22;51065;48.884;12.598;2023-07-29T13:06:12;27.60;99.90
64654;DHT22;51065;48.884;12.598;2023-07-29T13:08:38;27.80;99.90
64654;DHT22;51065;48.884;12.598;2023-07-29T13:11:04;28.10;99.90
64654;DHT22;51065;48.884;12.598;2023-07-29T13:13:31;28.20;97.60
64654;DHT22;51065;48.884;12.598;2023-07-29T13:15:57;27.60;98.30
64654;DHT22;51065;48.884;12.598;2023-07-29T13:18:23;27.70;99.90
64654;DHT22;51065;48.884;12.598;2023-07-29T13:20:49;27.80;98.60
64654;DHT22;51065;48.884;12.598;2023-07-29T13:23:15;28.10;96.10
64654;DHT22;51065;48.884;12.598;2023-07-29T13:25:41;28.60;96.10
64654;DHT22;51065;48.884;12.598;2023-07-29T13:28:08;28.40;94.40
64654;DHT22;51065;48.884;12.598;2023-07-29T13:30:34;28.30;95.00
64654;DHT22;51065;48.884;12.598;2023-07-29T13:32:59;28.00;99.90
64654;DHT22;51065;48.884;12.598;2023-07-29T13:35:25;27.60;95.30
64654;DHT22;51065;48.884;12.598;2023-07-29T13:37:51;27.00;95.20
64654;DHT22;51065;48.884;12.598;2023-07-29T13:40:16;27.00;98.80
64654;DHT22;51065;48.884;12.598;2023-07-29T13:42:42;27.20;99.90
64654;DHT22;51065;48.884;12.598;2023-07-29T13:45:08;27.50;99.90
64654;DHT22;51065;48.884;12.598;2023-07-29T13:47:33;27.80;96.00
64654;DHT22;51065;48.884;12.598;2023-07-29T13:50:00;28.30;98.50
64654;DHT22;51065;48.884;12.598;2023-07-29T13:52:25;28.50;95.50
64654;DHT22;51065;48.884;12.598;2023-07-29T13:54:51;28.00;99.90
64654;DHT22;51065;48.884;12.598;2023-07-29T13:57:17;27.90;99.20
64654;DHT22;51065;48.884;12.598;2023-07-29T13:59:42;27.50;97.30
64654;DHT22;51065;48.884;12.598;2023-07-29T14:02:08;27.00;99.90
64654;DHT22;51065;48.884;12.598;2023-07-29T14:04:34;26.80;99.90
64654;DHT22;51065;48.884;12.598;2023-07-29T14:06:59;26.20;99.90
64654;DHT22;51065;48.884;12.598;2023-07-29T14:09:26;26.10;99.90
64654;DHT22;51065;48.884;12.598;2023-07-29T14:11:52;25.60;99.90
64654;DHT22;51065;48.884;12.598;2023-07-29T14:14:17;25.80;99.90
64654;DHT22;51065;48.884;12.598;2023-07-29T14:16:43;25.50;99.90
64654;DHT22;51065;48.884;12.598;2023-07-29T14:19:09;25.80;99.90
64654;DHT22;51065;48.884;12.598;2023-07-29T14:21:34;25.90;99.90
64654;DHT22;51065;48.884;12.598;2023-07-29T14:24:00;26.00;99.90
64654;DHT22;51065;48.884;12.598;2023-07-29T14:26:26;25.90;99.90
64654;DHT22;51065;48.884;12.598;2023-07-29T14:28:52;26.20;99.90
64654;DHT22;51065;48.884;12.598;2023-07-29T14:31:18;26.40;99.90
64654;DHT22;51065;48.884;12.598;2023-07-29T14:33:44;26.40;99.90
64654;DHT22;51065;48.884;12.598;2023-07-29T14:36:10;26.00;99.90
64654;DHT22;51065;48.884;12.598;2023-07-29T14:38:36;25.60;99.90
64654;DHT22;51065;48.884;12.598;2023-07-29T14:41:02;25.60;99.90
64654;DHT22;51065;48.884;12.598;2023-07-29T14:43:28;26.00;99.90
64654;DHT22;51065;48.884;12.598;2023-07-29T14:45:53;26.20;99.90
64654;DHT22;51065;48.884;12.598;2023-07-29T14:48:19;26.50;99.90
64654;DHT22;51065;48.884;12.598;2023-07-29T14:50:45;26.20;99.90
64654;DHT22;51065;48.884;12.598;2023-07-29T14:53:10;26.50;99.90
64654;DHT22;51065;48.884;12.598;2023-07-29T14:55:37;26.50;99.90
64654;DHT22;51065;48.884;12.598;2023-07-29T14:58:02;26.50;99.90
64654;DHT22;51065;48.884;12.598;2023-07-29T15:00:28;26.30;99.90
64654;DHT22;51065;48.884;12.598;2023-07-29T15:02:54;26.30;99.90
64654;DHT22;51065;48.884;12.598;2023-07-29T15:05:19;26.20;99.90
64654;DHT22;51065;48.884;12.598;2023-07-29T15:07:45;26.30;99.90
64654;DHT22;51065;48.884;12.598;2023-07-29T15:10:14;26.10;99.90
64654;DHT22;51065;48.884;12.598;2023-07-29T15:12:41;25.70;99.90
64654;DHT22;51065;48.884;12.598;2023-07-29T15:15:08;25.40;99.90
64654;DHT22;51065;48.884;12.598;2023-07-29T15:17:33;25.30;99.90
64654;DHT22;51065;48.884;12.598;2023-07-29T15:19:59;25.30;99.90
64654;DHT22;51065;48.884;12.598;2023-07-29T15:22:25;25.40;99.90
64654;DHT22;51065;48.884;12.598;2023-07-29T15:24:50;25.70;99.90
64654;DHT22;51065;48.884;12.598;2023-07-29T15:27:16;25.80;99.90
64654;DHT22;51065;48.884;12.598;2023-07-29T15:29:42;25.80;99.90
64654;DHT22;51065;48.884;12.598;2023-07-29T15:32:07;25.60;99.90
64654;DHT22;51065;48.884;12.598;2023-07-29T15:34:33;25.60;99.90